Time;durP1;ratioP1;P1;durP2;ratioP2;P2;SDS_P1;SDS_P2;PMS_P1;PMS_P2;Temp;Humidity;BMP_temperature;BMP_pressure;BME280_temperature;BME280_humidity;BME280_pressure;Samples;Min_cycle;Max_cycle;Signal;HPM_P1;HPM_P2
2023/03/29 00:00:06;;;;;;;3.97;2.93;;;;;;;7.58;48.84;99321.56;5076065;28;42308;-78
2023/03/29 00:02:41;;;;;;;4.10;2.93;;;;;;;7.60;48.51;99324.16;5091293;28;40154;-78
2023/03/29 00:05:11;;;;;;;2.83;2.47;;;;;;;7.61;48.65;99327.63;5075640;28;41759;-79
2023/03/29 00:07:38;;;;;;;3.43;2.67;;;;;;;7.61;48.40;99325.00;5076200;28;41881;-77
2023/03/29 00:10:08;;;;;;;5.03;3.03;;;;;;;7.58;48.84;99326.84;5094115;28;43271;-78
2023/03/29 00:12:36;;;;;;;4.10;2.70;;;;;;;7.57;48.71;99319.00;5076178;28;40139;-77
2023/03/29 00:15:05;;;;;;;3.90;2.20;;;;;;;7.57;48.55;99319.84;5092711;28;42709;-77
2023/03/29 00:17:33;;;;;;;4.47;3.03;;;;;;;7.57;48.78;99313.72;5092789;28;44573;-77
2023/03/29 00:20:05;;;;;;;5.77;3.00;;;;;;;7.60;49.40;99312.75;5092190;28;42257;-78
2023/03/29 00:22:33;;;;;;;6.67;3.23;;;;;;;7.57;49.38;99308.44;5094232;28;39928;-78
2023/03/29 00:25:01;;;;;;;3.30;2.63;;;;;;;7.57;49.11;99314.59;5093803;28;42723;-78
2023/03/29 00:27:29;;;;;;;4.50;3.23;;;;;;;7.58;48.90;99310.16;5075809;28;41741;-77
2023/03/29 00:29:57;;;;;;;3.70;2.93;;;;;;;7.61;48.64;99309.19;5093003;28;42820;-78
2023/03/29 00:32:24;;;;;;;4.17;2.60;;;;;;;7.60;49.00;99302.19;5075799;28;38981;-78
2023/03/29 00:34:53;;;;;;;5.13;2.80;;;;;;;7.49;48.73;99277.16;5075880;28;40991;-78
2023/03/29 00:37:25;;;;;;;3.53;2.57;;;;;;;7.61;48.72;99294.22;5075717;28;43124;-78
2023/03/29 00:39:53;;;;;;;7.30;3.10;;;;;;;7.54;48.83;99277.81;5075664;28;41161;-78
2023/03/29 00:42:21;;;;;;;2.70;2.37;;;;;;;7.58;48.60;99279.41;5092565;28;40951;-78
2023/03/29 00:45:07;;;;;;;5.27;3.00;;;;;;;7.63;50.00;99283.63;5075778;28;40664;-78
2023/03/29 00:47:40;;;;;;;6.97;3.30;;;;;;;7.63;49.71;99275.72;5075674;28;41747;-78
2023/03/29 00:50:14;;;;;;;5.03;2.90;;;;;;;7.52;49.95;99263.88;5090488;28;42972;-78
2023/03/29 00:52:47;;;;;;;4.53;3.10;;;;;;;7.49;49.52;99252.59;5092516;28;39857;-78
2023/03/29 00:55:20;;;;;;;4.60;2.73;;;;;;;7.64;50.06;99272.16;5089088;28;41740;-77
2023/03/29 00:57:51;;;;;;;5.57;3.17;;;;;;;7.56;50.64;99254.88;5075691;28;41909;-78
2023/03/29 01:00:22;;;;;;;3.80;2.50;;;;;;;7.60;50.21;99266.16;5093583;28;42942;-78
2023/03/29 01:02:54;;;;;;;3.30;2.60;;;;;;;7.55;51.00;99258.44;5075388;28;38892;-78
2023/03/29 01:05:25;;;;;;;4.07;2.60;;;;;;;7.57;50.83;99264.50;5075141;28;41453;-78
2023/03/29 01:07:59;;;;;;;5.37;2.33;;;;;;;7.58;51.03;99253.03;5089163;28;43291;-78
2023/03/29 01:10:33;;;;;;;4.10;2.20;;;;;;;7.62;50.87;99242.38;5092041;28;41058;-77
2023/03/29 01:13:05;;;;;;;2.60;2.03;;;;;;;7.62;51.27;99229.19;5075229;28;39006;-78
2023/03/29 01:15:33;;;;;;;4.03;2.40;;;;;;;7.63;51.27;99228.28;5092170;28;40545;-78
2023/03/29 01:18:01;;;;;;;3.47;2.20;;;;;;;7.64;51.53;99222.94;5074974;28;43022;-77
2023/03/29 01:20:47;;;;;;;4.97;2.30;;;;;;;7.68;51.74;99221.00;5074535;28;40920;-78
2023/03/29 01:26:23;;;;;;;3.27;2.07;;;;;;;7.72;52.11;99209.41;5109071;28;21253;-76
2023/03/29 01:28:58;;;;;;;3.97;1.67;;;;;;;7.72;51.88;99207.63;5106416;28;40025;-77
2023/03/29 01:31:29;;;;;;;2.73;1.87;;;;;;;7.72;51.95;99193.56;5139246;27;41610;-77
2023/03/29 01:34:02;;;;;;;2.70;1.60;;;;;;;7.71;52.30;99191.88;5139734;27;43713;-76
2023/03/29 01:36:38;;;;;;;3.10;1.87;;;;;;;7.71;52.59;99184.81;5091396;28;42051;-76
2023/03/29 01:39:07;;;;;;;2.73;1.60;;;;;;;7.72;53.30;99170.72;5139743;27;40139;-76
2023/03/29 01:41:49;;;;;;;2.70;1.80;;;;;;;7.73;53.78;99161.03;5124951;27;40608;-77
2023/03/29 01:44:26;;;;;;;3.70;1.87;;;;;;;7.72;53.97;99159.31;5139982;27;43798;-76
2023/03/29 01:47:02;;;;;;;3.90;1.87;;;;;;;7.74;54.09;99152.19;5104728;28;42113;-77
2023/03/29 01:49:36;;;;;;;2.33;1.60;;;;;;;7.72;53.79;99148.75;5125121;27;39311;-76
2023/03/29 01:52:10;;;;;;;4.13;1.67;;;;;;;7.77;53.63;99163.47;5106027;28;41971;-77
2023/03/29 01:54:45;;;;;;;2.67;1.70;;;;;;;7.78;53.61;99170.44;5106200;28;43601;-77
2023/03/29 01:57:14;;;;;;;5.37;1.70;;;;;;;7.80;53.61;99167.72;5125184;27;41313;-77
2023/03/29 01:59:46;;;;;;;1.90;1.50;;;;;;;7.77;53.96;99157.34;5107607;28;40642;-77
2023/03/29 02:02:17;;;;;;;2.60;1.57;;;;;;;7.79;54.55;99155.47;5105847;28;41712;-77
2023/03/29 02:04:51;;;;;;;2.27;1.67;;;;;;;7.79;54.51;99166.03;5140115;27;43919;-77
2023/03/29 02:07:23;;;;;;;2.03;1.60;;;;;;;7.79;54.79;99155.47;5109158;28;43032;-77
2023/03/29 02:09:52;;;;;;;2.40;1.60;;;;;;;7.78;55.68;99151.13;5106190;28;40425;-78
2023/03/29 02:12:21;;;;;;;2.23;1.67;;;;;;;7.80;55.34;99146.63;5107630;28;42368;-78
2023/03/29 02:14:51;;;;;;;1.63;1.50;;;;;;;7.82;55.49;99144.78;5107405;28;42842;-77
2023/03/29 02:17:21;;;;;;;1.90;1.57;;;;;;;7.81;55.83;99145.69;5141699;27;42080;-78
2023/03/29 02:19:55;;;;;;;2.37;1.60;;;;;;;7.81;56.15;99133.38;5090203;28;39004;-78
2023/03/29 02:22:27;;;;;;;2.23;1.47;;;;;;;7.79;56.22;99139.66;5107488;28;41217;-77
2023/03/29 02:24:58;;;;;;;1.60;1.50;;;;;;;7.68;57.43;99105.00;5106517;28;42718;-78
2023/03/29 02:27:27;;;;;;;1.60;1.40;;;;;;;7.79;57.44;99123.84;5090148;28;42149;-78
2023/03/29 02:29:57;;;;;;;2.57;1.57;;;;;;;7.79;57.35;99126.47;5090167;28;38656;-77
2023/03/29 02:32:30;;;;;;;2.07;1.70;;;;;;;7.79;57.41;99129.13;5141595;27;41428;-78
2023/03/29 02:35:05;;;;;;;2.70;1.60;;;;;;;7.79;57.95;99123.84;5105934;28;43751;-77
2023/03/29 02:37:35;;;;;;;1.67;1.57;;;;;;;7.79;58.86;99108.84;5076398;28;41130;-78
2023/03/29 02:40:11;;;;;;;2.67;1.50;;;;;;;7.79;58.54;99118.56;5127455;27;40822;-78
2023/03/29 02:42:41;;;;;;;1.70;1.43;;;;;;;7.79;59.73;99110.66;5110403;28;41536;-77
2023/03/29 02:45:15;;;;;;;1.70;1.47;;;;;;;7.77;59.88;99100.19;5076128;28;42795;-78
2023/03/29 02:47:46;;;;;;;1.53;1.37;;;;;;;7.75;60.21;99093.28;5090152;28;42943;-77
2023/03/29 02:50:14;;;;;;;6.23;1.87;;;;;;;7.74;60.87;99100.31;5093227;28;38864;-77
2023/03/29 02:52:51;;;;;;;2.93;1.60;;;;;;;7.76;59.90;99109.03;5110316;28;40830;-78
2023/03/29 02:55:21;;;;;;;1.83;1.27;;;;;;;7.75;59.52;99103.81;5126509;27;42580;-78
2023/03/29 02:57:49;;;;;;;2.00;1.40;;;;;;;7.77;60.19;99094.91;5110034;28;41186;-78
2023/03/29 03:00:21;;;;;;;1.97;1.70;;;;;;;7.77;59.93;99100.19;5076162;28;39979;-79
2023/03/29 03:02:50;;;;;;;2.90;1.70;;;;;;;7.77;60.91;99089.66;5090099;28;41438;-78
2023/03/29 03:05:19;;;;;;;2.63;2.07;;;;;;;7.78;60.52;99088.72;5109800;28;43332;-78
2023/03/29 03:07:46;;;;;;;2.20;1.73;;;;;;;7.79;62.05;99081.66;5092933;28;42072;-78
2023/03/29 03:10:15;;;;;;;3.60;2.10;;;;;;;7.80;61.40;99088.63;5109978;28;39010;-78
2023/03/29 03:12:42;;;;;;;2.03;1.70;;;;;;;7.79;61.18;99086.94;5093155;28;41748;-77
2023/03/29 03:15:12;;;;;;;1.83;1.50;;;;;;;7.79;60.95;99073.75;5109802;28;42919;-78
2023/03/29 03:17:43;;;;;;;1.90;1.50;;;;;;;7.79;60.32;99084.31;5075899;28;42598;-77
2023/03/29 03:20:12;;;;;;;1.40;1.30;;;;;;;7.71;60.71;99078.50;5127351;27;41076;-78
2023/03/29 03:22:42;;;;;;;1.50;1.40;;;;;;;7.78;61.37;99085.22;5076480;28;40593;-77
2023/03/29 03:25:11;;;;;;;2.73;1.60;;;;;;;7.77;61.48;99083.50;5093807;28;42793;-78
2023/03/29 03:27:40;;;;;;;1.87;1.60;;;;;;;7.74;61.84;99073.09;5126992;27;43125;-78
2023/03/29 03:30:09;;;;;;;2.43;1.50;;;;;;;7.72;61.67;99085.50;5092861;28;39813;-78
2023/03/29 03:32:57;;;;;;;2.10;1.30;;;;;;;7.73;61.59;99088.06;5075807;28;40314;-77
2023/03/29 03:35:46;;;;;;;2.80;1.50;;;;;;;7.73;61.35;99081.94;5092853;27;43721;-77
2023/03/29 03:38:16;;;;;;;2.07;1.50;;;;;;;7.66;62.35;99059.44;5089626;28;42432;-78
2023/03/29 03:40:53;;;;;;;1.93;1.67;;;;;;;7.68;62.44;99062.84;5092203;28;40357;-77
2023/03/29 03:43:21;;;;;;;2.47;1.50;;;;;;;7.63;62.34;99059.59;5109477;28;40579;-78
2023/03/29 03:45:50;;;;;;;2.00;1.60;;;;;;;7.63;62.19;99068.34;5092084;28;43442;-77
2023/03/29 03:48:24;;;;;;;2.87;1.53;;;;;;;7.63;62.53;99059.59;5122263;27;42388;-78
2023/03/29 03:51:09;;;;;;;2.30;1.70;;;;;;;7.62;62.21;99063.16;5123479;27;39646;-79
2023/03/29 03:53:37;;;;;;;3.77;2.10;;;;;;;7.62;62.55;99063.16;5092622;28;41874;-78
2023/03/29 03:56:24;;;;;;;1.97;1.60;;;;;;;7.62;62.26;99060.50;5092139;28;42826;-79
2023/03/29 03:59:01;;;;;;;3.10;2.10;;;;;;;7.53;62.41;99060.03;5092368;28;40957;-77
2023/03/29 04:01:34;;;;;;;2.97;2.13;;;;;;;7.55;63.60;99062.56;5089310;28;40868;-78
2023/03/29 04:04:18;;;;;;;2.20;1.80;;;;;;;7.47;62.48;99055.03;5108880;28;42255;-78
2023/03/29 04:07:04;;;;;;;2.30;1.80;;;;;;;7.52;62.48;99066.22;5090311;28;43723;-78
2023/03/29 04:09:59;;;;;;;2.40;1.80;;;;;;;7.49;63.00;99061.09;5091425;28;41064;-78
2023/03/29 04:12:42;;;;;;;3.47;1.80;;;;;;;7.46;63.34;99050.69;5109075;28;39927;-78
2023/03/29 04:15:10;;;;;;;2.23;1.90;;;;;;;7.45;63.31;99053.38;5108538;28;41657;-77
2023/03/29 04:17:43;;;;;;;3.73;2.13;;;;;;;7.41;63.03;99052.69;5122876;27;43817;-78
2023/03/29 04:20:27;;;;;;;2.73;2.13;;;;;;;7.33;63.34;99056.59;5109197;28;41366;-77
2023/03/29 04:22:55;;;;;;;2.20;1.90;;;;;;;7.23;63.50;99045.63;5126121;27;40935;-78
2023/03/29 04:25:24;;;;;;;3.50;2.40;;;;;;;7.12;63.90;99040.84;5091448;28;42700;-76
2023/03/29 04:27:57;;;;;;;2.90;2.50;;;;;;;6.98;64.56;99045.88;5092015;28;42655;-78
2023/03/29 04:30:36;;;;;;;2.77;2.47;;;;;;;6.93;64.58;99047.00;5108883;28;41486;-78
2023/03/29 04:33:09;;;;;;;2.60;2.40;;;;;;;6.87;64.68;99050.78;5091433;28;40142;-78
2023/03/29 04:35:41;;;;;;;3.17;2.23;;;;;;;6.83;64.32;99044.78;5125991;27;42161;-78
2023/03/29 04:38:13;;;;;;;4.03;2.30;;;;;;;6.88;64.33;99054.25;5109098;28;42958;-77
2023/03/29 04:40:42;;;;;;;3.00;2.10;;;;;;;6.97;64.24;99045.94;5108235;28;41106;-78
2023/03/29 04:43:22;;;;;;;2.90;2.03;;;;;;;7.05;64.48;99044.66;5123062;27;39953;-78
2023/03/29 04:46:02;;;;;;;3.60;2.63;;;;;;;7.12;64.52;99030.31;5108179;28;40860;-78
2023/03/29 04:48:49;;;;;;;2.93;2.20;;;;;;;7.20;64.34;99036.06;5122829;27;42729;-77
2023/03/29 04:51:21;;;;;;;2.90;2.40;;;;;;;7.25;64.26;99027.97;5108350;28;41128;-78
2023/03/29 04:53:52;;;;;;;4.73;2.50;;;;;;;7.30;64.17;99040.91;5122534;27;39941;-78
2023/03/29 04:56:21;;;;;;;2.90;1.90;;;;;;;7.29;63.46;99024.28;5108381;28;41922;-78
2023/03/29 04:59:08;;;;;;;2.40;1.90;;;;;;;7.39;63.81;99032.59;5090750;28;43258;-78
2023/03/29 05:01:36;;;;;;;3.33;2.10;;;;;;;7.42;63.77;99035.94;5091153;28;42258;-78
2023/03/29 05:04:05;;;;;;;2.50;2.07;;;;;;;7.46;63.52;99041.91;5107867;28;39086;-78
2023/03/29 05:06:41;;;;;;;2.50;1.73;;;;;;;7.50;63.29;99043.50;5108291;28;41689;-78
2023/03/29 05:09:12;;;;;;;2.30;2.10;;;;;;;7.52;63.64;99037.22;5107464;28;43705;-78
2023/03/29 05:11:53;;;;;;;2.60;2.40;;;;;;;7.48;63.25;99019.84;5073792;28;42209;-78
2023/03/29 05:14:22;;;;;;;2.60;2.30;;;;;;;7.61;63.01;99029.81;5074263;28;38672;-78
2023/03/29 05:16:51;;;;;;;5.10;2.10;;;;;;;7.61;63.21;99035.06;5074231;28;41723;-79
2023/03/29 05:19:20;;;;;;;2.90;1.97;;;;;;;7.55;63.03;99033.56;5090981;28;43843;-77
2023/03/29 05:21:51;;;;;;;3.60;2.40;;;;;;;7.47;63.20;99033.94;5125142;27;42238;-78
2023/03/29 05:24:23;;;;;;;3.20;1.73;;;;;;;7.40;63.20;99035.19;5122082;27;40859;-78
2023/03/29 05:27:14;;;;;;;2.67;2.47;;;;;;;7.39;63.44;99030.81;5091203;28;40336;-77
2023/03/29 05:29:43;;;;;;;2.77;2.40;;;;;;;7.36;63.93;99024.84;5108065;28;41532;-78
2023/03/29 05:32:38;;;;;;;3.40;1.87;;;;;;;7.32;63.49;99023.25;5091571;27;42802;-77
2023/03/29 05:35:08;;;;;;;2.67;2.17;;;;;;;7.26;64.33;99013.03;5107562;28;39188;-78
2023/03/29 05:37:37;;;;;;;3.77;2.67;;;;;;;7.20;64.43;99020.28;5107723;28;41747;-78
2023/03/29 05:40:09;;;;;;;2.87;2.30;;;;;;;7.19;64.59;99020.34;5073435;28;41859;-78
2023/03/29 05:43:01;;;;;;;3.83;2.10;;;;;;;7.21;63.85;99022.00;5090923;27;42921;-77
2023/03/29 05:45:29;;;;;;;2.30;1.70;;;;;;;7.18;63.90;99008.09;5073427;28;39718;-77
2023/03/29 05:47:57;;;;;;;2.20;1.97;;;;;;;7.25;63.53;99016.59;5090643;28;41725;-78
2023/03/29 05:50:24;;;;;;;4.10;1.80;;;;;;;7.28;63.73;99019.94;5090883;28;43730;-79
2023/03/29 05:52:55;;;;;;;4.23;2.50;;;;;;;7.27;63.91;99015.59;5125452;27;42009;-78
2023/03/29 05:55:23;;;;;;;2.57;1.70;;;;;;;7.34;63.50;99019.63;5107298;28;38769;-77
2023/03/29 05:57:51;;;;;;;1.97;1.80;;;;;;;7.41;63.36;99028.97;5073664;28;41671;-78
2023/03/29 06:00:24;;;;;;;2.00;1.80;;;;;;;7.54;63.13;99038.00;5073232;28;41704;-78
2023/03/29 06:02:58;;;;;;;4.30;2.37;;;;;;;7.71;62.68;99031.06;5107428;28;42653;-77
2023/03/29 06:05:26;;;;;;;4.43;2.00;;;;;;;7.82;62.89;99034.03;5073470;28;39128;-79
2023/03/29 06:08:03;;;;;;;2.40;1.80;;;;;;;7.89;62.79;99036.31;5090689;28;40644;-79
2023/03/29 06:10:59;;;;;;;2.80;2.40;;;;;;;7.97;62.99;99035.94;5081828;28;41542;-77
2023/03/29 06:13:47;;;;;;;4.57;2.17;;;;;;;8.03;62.69;99042.69;5095804;28;40550;-79
2023/03/29 06:16:15;;;;;;;3.30;2.20;;;;;;;8.03;62.57;99021.59;5095446;28;40000;-78
2023/03/29 06:18:43;;;;;;;2.30;2.10;;;;;;;8.23;62.53;99040.78;5077404;28;40574;-82
2023/03/29 06:21:12;;;;;;;2.77;2.10;;;;;;;8.40;62.78;99041.75;5107330;27;42996;-83
2023/03/29 06:23:41;;;;;;;2.73;2.33;;;;;;;8.56;62.12;99040.88;5059575;28;42941;-81
2023/03/29 06:26:09;;;;;;;3.27;2.80;;;;;;;8.71;62.37;99046.31;5075214;28;39295;-79
2023/03/29 06:28:40;;;;;;;3.23;2.37;;;;;;;8.79;61.59;99039.69;5077121;28;40952;-80
2023/03/29 06:31:08;;;;;;;3.63;2.60;;;;;;;9.00;61.44;99057.06;5090942;28;42692;-78
2023/03/29 06:33:42;;;;;;;4.03;2.47;;;;;;;9.02;61.27;99037.63;5090801;28;43162;-78
2023/03/29 06:36:17;;;;;;;3.37;2.87;;;;;;;9.24;60.89;99067.25;5070770;28;39917;-77
2023/03/29 06:38:46;;;;;;;3.70;2.43;;;;;;;9.28;60.50;99045.00;5073150;28;40888;-82
2023/03/29 06:41:41;;;;;;;3.67;2.57;;;;;;;9.52;60.07;99056.88;5069550;28;41803;-80
2023/03/29 06:44:09;;;;;;;3.60;2.70;;;;;;;9.55;60.01;99040.00;5093367;28;41221;-79
2023/03/29 06:46:56;;;;;;;4.90;2.90;;;;;;;9.78;59.28;99070.44;5090571;28;39832;-79
2023/03/29 06:49:25;;;;;;;6.47;2.63;;;;;;;9.89;59.69;99057.50;5075630;28;40688;-78
2023/03/29 06:52:17;;;;;;;3.60;2.60;;;;;;;9.77;59.34;99018.50;5129117;27;42157;-79
2023/03/29 06:54:49;;;;;;;6.27;2.80;;;;;;;10.15;59.16;99055.97;5073111;28;41558;-79
2023/03/29 06:57:17;;;;;;;5.20;3.00;;;;;;;10.23;58.59;99065.25;5073168;28;39854;-79
2023/03/29 06:59:45;;;;;;;3.43;2.70;;;;;;;10.32;58.27;99064.69;5061283;28;40642;-78
2023/03/29 07:02:35;;;;;;;3.63;2.47;;;;;;;10.49;57.79;99065.50;5067378;28;41952;-76
2023/03/29 07:05:13;;;;;;;4.37;2.63;;;;;;;10.55;57.78;99043.94;5067629;28;42112;-79
2023/03/29 07:08:10;;;;;;;6.77;2.50;;;;;;;10.82;57.13;99071.44;5076390;28;38961;-80
2023/03/29 07:11:06;;;;;;;3.37;2.80;;;;;;;10.97;56.63;99075.84;5089667;28;40178;-79
2023/03/29 07:13:47;;;;;;;4.93;2.70;;;;;;;11.05;56.50;99075.34;5075574;28;42835;-81
2023/03/29 07:16:19;;;;;;;4.37;2.77;;;;;;;11.17;56.15;99079.91;5076045;28;41097;-82
2023/03/29 07:18:55;;;;;;;3.97;2.80;;;;;;;11.48;56.08;99085.03;5089658;28;40011;-80
2023/03/29 07:21:49;;;;;;;3.03;2.67;;;;;;;12.80;53.93;99082.63;5085560;28;43102;-80
2023/03/29 07:24:18;;;;;;;2.80;2.50;;;;;;;14.08;51.55;99095.72;5091737;28;43542;-82
2023/03/29 07:26:49;;;;;;;3.97;2.40;;;;;;;14.97;48.77;99113.94;5076171;28;41551;-84
2023/03/29 07:29:17;;;;;;;4.13;2.73;;;;;;;15.84;47.01;99113.31;5075109;28;39033;-80
2023/03/29 07:31:44;;;;;;;3.30;2.67;;;;;;;16.35;45.64;99134.97;5093120;28;42034;-82
2023/03/29 07:34:45;;;;;;;3.33;2.50;;;;;;;16.77;44.13;99130.63;5058553;28;43231;-79
2023/03/29 07:37:24;;;;;;;5.33;2.70;;;;;;;17.43;43.97;99133.88;5075752;28;41401;-82
2023/03/29 07:39:53;;;;;;;4.73;2.90;;;;;;;18.44;41.67;99138.38;5109102;28;38631;-82
2023/03/29 07:42:48;;;;;;;3.23;2.70;;;;;;;18.97;40.31;99139.72;5075999;28;41803;-79
2023/03/29 07:45:22;;;;;;;3.30;2.43;;;;;;;18.81;39.80;99143.97;5090814;28;43642;-82
2023/03/29 07:48:10;;;;;;;5.57;2.40;;;;;;;18.43;38.71;99160.81;5092641;28;41974;-78
2023/03/29 07:51:01;;;;;;;3.73;2.70;;;;;;;18.24;39.12;99158.97;5083240;28;38757;-81
2023/03/29 07:53:34;;;;;;;3.60;2.60;;;;;;;18.01;39.74;99160.16;5075454;28;41126;-79
2023/03/29 07:56:06;;;;;;;3.63;2.80;;;;;;;17.70;40.08;99157.47;5088846;28;43063;-80
2023/03/29 07:58:58;;;;;;;4.20;2.80;;;;;;;17.41;40.50;99156.44;5092294;28;41129;-80
2023/03/29 08:01:26;;;;;;;5.63;2.60;;;;;;;17.14;41.17;99143.59;5075792;28;38649;-80
2023/03/29 08:04:14;;;;;;;2.60;2.00;;;;;;;16.81;40.96;99153.44;5089431;28;41561;-84
2023/03/29 08:07:00;;;;;;;3.87;2.60;;;;;;;16.53;41.62;99146.00;5091795;28;41836;-77
2023/03/29 08:09:46;;;;;;;3.77;2.33;;;;;;;16.23;41.98;99149.34;5074735;28;42347;-79
2023/03/29 08:12:13;;;;;;;3.20;2.40;;;;;;;15.87;41.96;99126.44;5092156;28;39947;-79
2023/03/29 08:14:43;;;;;;;3.60;2.27;;;;;;;15.76;42.51;99137.13;5074360;28;41793;-80
2023/03/29 08:17:16;;;;;;;2.20;1.90;;;;;;;15.54;42.58;99137.09;5088774;28;43768;-79
2023/03/29 08:19:48;;;;;;;3.77;2.63;;;;;;;15.32;42.54;99138.78;5089956;28;42298;-78
2023/03/29 08:22:20;;;;;;;2.73;2.03;;;;;;;15.13;43.06;99149.13;5122914;27;40843;-80
2023/03/29 08:25:18;;;;;;;2.77;2.23;;;;;;;14.98;43.32;99140.47;5086499;28;41631;-79
2023/03/29 08:27:49;;;;;;;2.97;1.97;;;;;;;14.89;44.01;99135.00;5109382;28;41532;-79
2023/03/29 08:30:28;;;;;;;3.40;2.67;;;;;;;14.62;44.17;99105.94;5074651;28;40696;-77
2023/03/29 08:32:57;;;;;;;4.43;2.00;;;;;;;14.65;43.54;99138.56;5088829;28;40162;-79
2023/03/29 08:35:25;;;;;;;3.63;2.13;;;;;;;14.64;43.98;99147.50;5090591;28;42639;-81
2023/03/29 08:38:10;;;;;;;5.37;2.23;;;;;;;14.58;44.16;99137.31;5074943;28;41646;-78
2023/03/29 08:40:38;;;;;;;3.47;2.10;;;;;;;14.56;44.30;99141.91;5070518;28;41213;-80
2023/03/29 08:43:26;;;;;;;2.60;2.00;;;;;;;14.51;44.24;99143.19;5054830;28;39947;-79
2023/03/29 08:46:26;;;;;;;3.57;2.10;;;;;;;14.39;44.31;99123.59;5068984;28;41771;-81
2023/03/29 08:49:01;;;;;;;3.27;2.00;;;;;;;14.42;44.43;99131.41;5069673;28;43303;-79
2023/03/29 08:51:33;;;;;;;5.10;1.77;;;;;;;14.45;44.75;99128.53;5074530;28;41515;-77
2023/03/29 08:54:05;;;;;;;2.57;1.67;;;;;;;14.34;45.47;99102.63;5127733;27;39835;-80
2023/03/29 08:57:05;;;;;;;3.10;1.87;;;;;;;14.47;44.76;99129.25;5109121;28;42160;-81
2023/03/29 08:59:39;;;;;;;2.60;1.83;;;;;;;14.44;44.85;99110.84;5089450;28;42849;-79
2023/03/29 09:02:17;;;;;;;2.50;2.10;;;;;;;14.69;44.47;99121.38;5087796;28;43179;-77
2023/03/29 09:04:49;;;;;;;2.43;2.10;;;;;;;14.91;44.43;99117.06;5090792;28;41580;-80
2023/03/29 09:07:28;;;;;;;2.10;1.90;;;;;;;15.18;44.33;99133.66;5074403;28;41932;-79
2023/03/29 09:09:57;;;;;;;4.10;2.03;;;;;;;15.48;43.47;99130.41;5089920;28;42791;-81
2023/03/29 09:12:51;;;;;;;2.47;2.00;;;;;;;15.84;43.08;99129.34;5125387;27;41538;-80
2023/03/29 09:15:24;;;;;;;3.00;2.20;;;;;;;16.13;42.73;99135.88;5123630;27;39681;-83
2023/03/29 09:18:17;;;;;;;4.13;2.33;;;;;;;16.28;41.89;99143.63;5087721;28;41961;-78
2023/03/29 09:20:50;;;;;;;2.30;2.10;;;;;;;16.39;41.70;99136.44;5073554;28;43359;-81
2023/03/29 09:23:51;;;;;;;2.87;2.00;;;;;;;16.52;40.60;99130.94;5074864;28;41336;-78
2023/03/29 09:26:33;;;;;;;2.23;1.80;;;;;;;16.69;40.84;99149.13;5073577;28;39848;-79
2023/03/29 09:29:30;;;;;;;4.73;1.87;;;;;;;16.79;40.04;99150.06;5087717;28;41674;-82
2023/03/29 09:32:00;;;;;;;2.70;2.00;;;;;;;16.75;40.41;99132.56;5073905;28;42968;-79
2023/03/29 09:34:31;;;;;;;2.63;2.17;;;;;;;16.97;39.71;99147.66;5073113;28;42438;-84
2023/03/29 09:37:11;;;;;;;4.83;2.20;;;;;;;17.06;39.71;99152.25;5074247;28;38817;-80
2023/03/29 09:39:41;;;;;;;1.90;1.70;;;;;;;17.21;40.05;99142.06;5069913;28;41797;-80
2023/03/29 09:42:15;;;;;;;2.37;1.70;;;;;;;17.49;39.75;99159.31;5067534;28;43057;-78
2023/03/29 09:44:47;;;;;;;2.70;1.70;;;;;;;17.80;38.61;99160.22;5073966;28;42449;-79
2023/03/29 09:47:25;;;;;;;5.47;2.17;;;;;;;18.05;38.58;99162.41;5076391;28;38648;-79
2023/03/29 09:49:59;;;;;;;2.23;1.63;;;;;;;18.39;38.35;99164.78;5092153;28;42517;-81
2023/03/29 09:52:28;;;;;;;3.43;1.97;;;;;;;18.61;37.79;99159.22;5111398;28;42696;-80
2023/03/29 09:55:16;;;;;;;2.77;1.57;;;;;;;18.84;37.16;99170.53;5076489;28;41234;-79
2023/03/29 09:58:10;;;;;;;1.90;1.53;;;;;;;18.98;36.72;99176.31;5094016;28;38991;-79
2023/03/29 10:00:40;;;;;;;3.50;1.50;;;;;;;19.11;36.30;99172.50;5073259;28;40781;-80
2023/03/29 10:03:09;;;;;;;3.13;1.70;;;;;;;19.30;36.96;99161.75;5073703;28;42700;-80
2023/03/29 10:05:53;;;;;;;3.40;1.90;;;;;;;19.46;37.14;99145.88;5090369;28;42860;-82
2023/03/29 10:08:27;;;;;;;1.73;1.63;;;;;;;19.78;36.68;99163.53;5077274;28;39018;-81
2023/03/29 10:10:59;;;;;;;4.37;1.83;;;;;;;19.94;35.78;99166.41;5075962;28;40994;-80
2023/03/29 10:13:30;;;;;;;2.57;1.83;;;;;;;19.95;35.93;99149.28;5094887;28;43814;-82
2023/03/29 10:16:02;;;;;;;3.67;1.80;;;;;;;20.19;35.95;99154.13;5093608;28;40942;-81
2023/03/29 10:18:35;;;;;;;3.00;1.77;;;;;;;20.45;35.60;99147.09;5094135;28;40140;-83
2023/03/29 10:21:06;;;;;;;3.63;1.60;;;;;;;20.73;34.89;99142.50;5108217;27;42814;-81
2023/03/29 10:23:37;;;;;;;2.47;1.63;;;;;;;21.15;34.88;99153.47;5057189;28;41931;-80
2023/03/29 10:26:08;;;;;;;4.50;1.83;;;;;;;21.41;34.14;99158.94;5088925;28;42413;-78
2023/03/29 10:28:38;;;;;;;2.57;1.57;;;;;;;21.69;34.17;99157.78;5056851;28;40091;-80
2023/03/29 10:31:06;;;;;;;3.40;1.70;;;;;;;22.00;33.81;99154.63;5089795;28;41677;-78
2023/03/29 10:33:36;;;;;;;2.07;1.40;;;;;;;22.24;32.85;99149.34;5076640;28;41720;-77
2023/03/29 10:36:08;;;;;;;1.50;1.40;;;;;;;22.43;32.31;99167.09;5126752;27;42267;-79
2023/03/29 10:38:38;;;;;;;1.90;1.53;;;;;;;22.39;31.90;99177.38;5093819;28;39859;-79
2023/03/29 10:41:09;;;;;;;1.37;1.27;;;;;;;22.35;32.25;99157.16;5076122;28;40475;-78
2023/03/29 10:43:39;;;;;;;2.03;1.33;;;;;;;22.78;32.13;99157.94;5076148;28;41900;-76
2023/03/29 10:46:09;;;;;;;2.63;1.70;;;;;;;23.15;31.10;99163.72;5109049;28;42187;-80
2023/03/29 10:48:38;;;;;;;2.70;1.40;;;;;;;23.38;31.08;99157.63;5076718;28;39206;-81
2023/03/29 10:51:07;;;;;;;2.20;1.50;;;;;;;23.51;31.47;99158.00;5092434;28;41809;-77
2023/03/29 10:53:37;;;;;;;2.50;1.53;;;;;;;23.76;30.71;99148.84;5109574;28;41690;-77
2023/03/29 10:56:39;;;;;;;3.17;1.47;;;;;;;24.06;30.21;99162.63;5074732;28;42110;-78
2023/03/29 10:59:29;;;;;;;1.93;1.60;;;;;;;24.40;30.39;99143.38;5071365;28;38864;-76
2023/03/29 11:02:40;;;;;;;3.13;1.60;;;;;;;24.80;29.74;99140.47;5090004;28;40734;-82
2023/03/29 11:05:23;;;;;;;2.03;1.30;;;;;;;24.93;29.72;99138.03;5092568;28;42821;-80
2023/03/29 11:08:13;;;;;;;2.17;1.50;;;;;;;24.77;29.27;99145.38;5089749;28;42248;-82
2023/03/29 11:10:51;;;;;;;4.47;1.70;;;;;;;24.77;29.48;99126.41;5108770;28;39972;-78
2023/03/29 11:13:26;;;;;;;3.17;1.60;;;;;;;24.80;29.20;99129.63;5075970;28;42163;-76
2023/03/29 11:16:08;;;;;;;1.97;1.13;;;;;;;24.94;29.32;99117.19;5091601;28;42730;-77
2023/03/29 11:19:12;;;;;;;3.80;1.43;;;;;;;25.29;29.37;99129.25;5075791;28;41390;-80
2023/03/29 11:21:50;;;;;;;2.40;1.60;;;;;;;25.36;28.39;99136.47;5076179;28;39994;-78
2023/03/29 11:24:27;;;;;;;2.57;1.60;;;;;;;25.69;28.82;99128.06;5091291;28;42004;-81
2023/03/29 11:27:12;;;;;;;2.33;1.50;;;;;;;26.51;27.55;99125.22;5075615;28;42487;-81
2023/03/29 11:29:50;;;;;;;3.23;1.70;;;;;;;27.30;27.25;99132.34;5074384;28;40903;-77
2023/03/29 11:32:27;;;;;;;2.80;1.43;;;;;;;27.57;26.70;99121.72;5090198;28;40658;-77
2023/03/29 11:35:05;;;;;;;2.60;1.60;;;;;;;28.63;25.38;99123.13;5108519;28;41589;-80
2023/03/29 11:37:41;;;;;;;2.80;1.67;;;;;;;29.37;24.49;99115.69;5096994;28;43152;-80
2023/03/29 11:40:30;;;;;;;1.63;1.53;;;;;;;29.94;24.04;99127.81;5082102;28;42200;-81
2023/03/29 11:43:03;;;;;;;3.50;1.60;;;;;;;29.79;24.21;99119.06;5063047;28;38975;-77
2023/03/29 11:45:38;;;;;;;1.70;1.60;;;;;;;29.64;24.00;99131.03;5069404;28;40938;-77
2023/03/29 11:48:14;;;;;;;3.80;1.53;;;;;;;29.42;24.27;99121.41;5089450;28;43732;-78
2023/03/29 11:50:47;;;;;;;2.63;1.57;;;;;;;29.04;24.30;99120.31;5090914;28;42222;-78
2023/03/29 11:53:24;;;;;;;1.93;1.43;;;;;;;28.72;24.97;99127.31;5108473;28;39978;-78
2023/03/29 11:55:55;;;;;;;1.80;1.37;;;;;;;28.30;24.54;99106.66;5090587;28;41907;-78
2023/03/29 11:58:30;;;;;;;3.33;1.57;;;;;;;28.17;25.08;99112.84;5075080;28;43132;-74
2023/03/29 12:01:04;;;;;;;1.73;1.27;;;;;;;27.66;25.75;99094.13;5091047;28;42323;-77
2023/03/29 12:03:38;;;;;;;1.67;1.20;;;;;;;27.35;26.14;99101.81;5088818;28;40650;-75
2023/03/29 12:06:13;;;;;;;1.77;1.40;;;;;;;26.84;26.30;99083.78;5074159;28;40753;-77
2023/03/29 12:08:46;;;;;;;1.30;1.20;;;;;;;26.86;26.16;99075.44;5073594;28;41810;-77
2023/03/29 12:11:24;;;;;;;2.07;1.23;;;;;;;27.63;25.73;99099.13;5054309;28;42158;-75
2023/03/29 12:13:58;;;;;;;1.33;1.10;;;;;;;28.68;25.24;99088.75;5071964;28;38962;-76
2023/03/29 12:16:32;;;;;;;3.00;1.43;;;;;;;29.90;23.89;99099.28;5089768;28;41739;-76
2023/03/29 12:19:04;;;;;;;2.13;1.30;;;;;;;30.09;23.66;99065.63;5090729;28;42262;-76